Estació municipal de St. Julià de Vilatorta (Osona, E.N.Guilleries-Savassona)

Consulta les dades en temps real de l'estació municipal de St. Julià de Vilatorta





Hora UTC 13:10
Temperatura 35.2 ºC
Subsòl 10 cm 42.1 ºC
Humitat 25.4 %
Pressió 1021.3 hPa
Pluja 0.0 mm
Velocitat vent 13.6 km/h
Direcció vent S
Radiació solar 763.7 W/m²
Fuel 2.8 %

Webcam

Dades diàries 2026-09-05



Hora UTC (hivern +1h; estiu +2h)
Temperatura (ºC) Humitat (%) Pressió (hPa) Velocitat vent (km/h) Precipitació (mm) Fuel (%) Radiació solar (W/m²)
Hora UTC Aire Subsòl 10 cm Humitat Pressió Vel. Dir. Vel. Max Dir. Intent. màx 5 min. Fuel Rad. Sol.
00:05 20.7 16.4 78.3 1021.4 3.8 ESE 3.8 ESE 0.0 7.2 0.6
00:10 20.7 16.3 78.5 1021.4 3.8 ESE 5.4 ESE 0.0 7.3 0.4
00:15 20.6 16.1 78.5 1021.4 3.8 E 5.7 ESE 0.0 7.3 0.5
00:20 20.6 16.0 78.3 1021.4 3.7 ESE 5.9 ESE 0.0 7.3 0.4
00:25 20.4 15.9 79.2 1021.4 2.6 ESE 4.4 ESE 0.0 7.4 0.3
00:30 20.4 15.8 79.4 1021.4 2.2 SE 3.2 SE 0.0 7.4 0.4
00:35 20.3 15.7 79.5 1021.4 2.3 SE 3.9 SE 0.0 7.4 0.2
00:40 20.2 15.7 80.2 1021.4 1.4 ESE 2.8 ESE 0.0 7.5 0.4
00:45 20.1 15.5 80.2 1021.3 2.3 SE 3.1 SE 0.0 7.5 0.6
00:50 20.1 15.4 79.9 1021.3 2.3 ESE 3.1 SE 0.0 7.5 0.6
00:55 20.1 15.4 80.0 1021.3 2.5 SE 3.3 ESE 0.0 7.6 0.7
01:00 20.1 15.4 79.3 1021.2 3.5 ESE 5.6 ESE 0.0 7.6 0.7
01:05 19.9 15.5 80.3 1021.3 1.6 SE 4.6 ESE 0.0 7.6 0.2
01:10 19.8 15.4 80.1 1021.3 2.6 ESE 6.9 ESE 0.0 7.7 0.8
01:15 19.7 15.3 80.2 1021.3 2.1 SE 4.1 SE 0.0 7.7 0.9
01:20 19.7 15.2 79.9 1021.3 2.5 ESE 4.0 ESE 0.0 7.7 0.9
01:25 19.7 15.2 79.5 1021.3 2.3 ESE 4.6 ESE 0.0 7.8 0.9
01:30 19.6 15.1 80.0 1021.3 2.6 ESE 4.1 ESE 0.0 7.8 0.7
01:35 19.6 15.1 79.4 1021.3 2.4 SE 3.3 SE 0.0 7.8 0.7
01:40 19.7 15.0 78.7 1021.4 2.0 SE 2.9 ESE 0.0 7.8 0.9
01:45 19.6 15.0 78.9 1021.3 2.6 ESE 3.8 ESE 0.0 7.8 0.7
01:50 19.5 15.0 79.3 1021.3 2.6 ESE 4.2 ESE 0.0 7.9 0.8
01:55 19.4 15.0 79.8 1021.3 2.0 ESE 3.4 ESE 0.0 7.9 0.7
02:00 19.2 14.9 80.1 1021.4 2.6 ESE 4.0 ESE 0.0 7.9 0.7
02:05 19.1 14.9 80.4 1021.4 3.3 ESE 5.7 ESE 0.0 7.9 0.8
02:10 19.3 14.8 79.8 1021.4 3.6 ESE 5.5 E 0.0 8.0 0.9
02:15 19.3 14.9 79.2 1021.4 3.9 ESE 6.3 ESE 0.0 8.0 0.9
02:20 19.3 15.0 79.1 1021.3 3.6 ESE 5.8 ESE 0.0 8.0 0.6
02:25 19.3 14.9 79.1 1021.3 2.6 ESE 4.9 ESE 0.0 8.0 0.4
02:30 19.4 14.8 78.7 1021.2 2.2 ESE 4.0 ESE 0.0 8.0 0.7
02:35 19.3 14.8 79.1 1021.3 1.4 SE 2.5 ESE 0.0 8.1 0.4
02:40 19.2 14.7 79.8 1021.3 1.3 SSE 2.1 SE 0.0 8.1 0.5
02:45 19.0 14.7 80.2 1021.2 2.4 ESE 5.1 ESE 0.0 8.1 0.9
02:50 19.0 14.6 80.7 1021.3 1.9 SE 3.0 SE 0.0 8.1 0.7
02:55 19.0 14.6 80.3 1021.3 1.9 ESE 2.7 ESE 0.0 8.2 1.1
03:00 19.0 14.5 80.4 1021.3 2.1 SE 3.3 SSE 0.0 8.2 1.1
03:05 18.9 14.6 80.2 1021.3 1.6 SE 3.7 SSE 0.0 8.2 0.3
03:10 18.8 14.6 80.9 1021.3 2.1 SE 3.0 SE 0.0 8.2 0.3
03:15 18.8 14.6 80.8 1021.3 1.7 SE 2.9 SE 0.0 8.2 0.8
03:20 18.7 14.6 81.2 1021.3 0.9 SSE 1.8 SE 0.0 8.3 0.4
03:25 18.5 14.5 82.1 1021.3 1.3 SE 2.7 SE 0.0 8.3 0.3
03:30 18.4 14.4 82.3 1021.4 1.8 SE 3.0 SE 0.0 8.1 1.0
03:35 18.5 14.4 82.0 1021.4 1.4 ESE 2.0 ESE 0.0 8.4 0.9
03:40 18.5 14.3 81.7 1021.4 1.2 SE 1.9 SE 0.0 8.4 0.9
03:45 18.3 14.3 82.3 1021.4 2.0 SE 3.0 SE 0.0 8.3 0.3
03:50 18.1 14.4 83.1 1021.4 2.1 SE 2.9 SE 0.0 8.4 0.6
03:55 18.0 14.4 83.8 1021.3 2.0 SE 3.2 SE 0.0 8.5 0.7
04:00 18.0 14.3 83.8 1021.3 1.7 SE 3.1 SE 0.0 8.5 0.6
04:05 17.8 14.3 84.5 1021.3 1.6 SE 2.6 SE 0.0 8.5 0.5
04:10 17.8 14.2 84.8 1021.3 1.7 SSE 2.5 SE 0.0 8.5 0.7
04:15 17.7 14.2 84.6 1021.3 1.9 SE 3.0 SE 0.0 8.6 0.5
04:20 17.6 14.1 85.1 1021.3 1.7 ESE 3.0 SE 0.0 8.5 0.7
04:25 17.6 14.0 85.7 1021.3 2.0 SE 2.7 SE 0.0 8.6 0.8
04:30 17.6 14.0 84.9 1021.4 1.4 SE 2.6 ESE 0.0 8.6 0.5
04:35 17.6 14.0 85.1 1021.4 2.4 SE 3.3 SE 0.0 8.7 0.8
04:40 17.8 13.9 84.1 1021.4 1.8 ESE 2.6 SE 0.0 8.7 1.1
04:45 17.7 13.9 83.7 1021.5 1.8 SE 2.6 ESE 0.0 8.7 0.5
04:50 17.7 13.9 83.9 1021.5 1.5 ESE 2.6 E 0.0 8.6 0.9
04:55 17.6 13.9 83.7 1021.5 3.2 ESE 4.8 ESE 0.0 8.8 0.9
05:00 17.8 14.0 82.4 1021.5 2.7 SE 4.1 SE 0.0 8.8 1.0
05:05 17.9 14.0 81.3 1021.6 2.4 SE 4.3 SE 0.0 8.8 0.9
05:10 17.9 13.9 81.1 1021.6 1.9 ESE 2.7 ESE 0.0 8.8 1.2
05:15 17.9 13.8 81.6 1021.7 2.1 ESE 3.1 E 0.0 8.2 1.8
05:20 17.8 13.8 81.5 1021.7 2.4 SE 3.3 ESE 0.0 8.8 2.6
05:25 17.9 13.8 81.4 1021.7 2.9 ESE 4.1 E 0.0 8.8 3.9
05:30 17.8 13.9 81.9 1021.7 2.4 ESE 4.3 ESE 0.0 8.9 5.4
05:35 17.7 13.9 82.4 1021.6 2.4 ESE 3.3 ESE 0.0 8.9 9.2
05:40 17.8 14.1 81.9 1021.6 1.4 SE 2.4 ESE 0.0 8.9 14.3
05:45 17.8 14.2 82.1 1021.7 0.7 ESE 2.1 SE 0.0 8.9 18.6
05:50 17.7 14.3 82.7 1021.7 1.9 SE 3.0 SE 0.0 8.9 23.4
05:55 17.8 14.4 82.5 1021.8 1.5 ESE 2.7 SE 0.0 8.9 27.7
06:00 17.7 14.6 83.4 1021.8 1.1 E 1.4 E 0.0 9.0 31.8
06:05 17.7 14.7 83.7 1021.9 1.7 ESE 2.7 ESE 0.0 9.0 34.8
06:10 17.9 14.8 83.2 1021.8 2.4 ESE 4.0 E 0.0 9.0 38.3
06:15 17.9 15.0 83.1 1021.9 1.3 SE 2.2 ESE 0.0 9.0 40.6
06:20 18.0 15.2 83.5 1021.9 1.1 SE 2.5 S 0.0 9.0 41.2
06:25 18.1 15.4 83.2 1022.0 1.4 SSE 2.9 SE 0.0 9.0 46.8
06:30 18.1 15.7 82.4 1022.0 1.3 SSE 2.3 SE 0.0 9.0 58.0
06:35 18.2 16.0 82.6 1022.0 1.1 SSE 1.5 SSE 0.0 9.1 73.4
06:40 18.3 16.3 82.8 1022.1 1.3 WSW 2.9 WNW 0.0 9.1 113.2
06:45 18.5 16.7 82.2 1022.2 1.9 WNW 3.2 NW 0.0 9.1 142.2
06:50 19.0 17.0 79.7 1022.2 1.3 SE 2.5 SE 0.0 9.0 156.0
06:55 19.7 17.4 76.2 1022.2 1.2 S 2.3 ESE 0.0 9.0 184.2
07:00 20.0 17.6 74.1 1022.3 0.7 SSE 1.5 SSE 0.0 9.0 200.5
07:05 20.4 17.9 72.1 1022.3 1.0 NE 3.3 N 0.0 9.0 216.1
07:10 20.6 18.1 70.0 1022.3 1.6 NNW 3.9 N 0.0 8.9 232.5
07:15 20.9 18.3 69.0 1022.3 0.3 NNW 1.8 NNW 0.0 8.5 247.8
07:20 22.1 18.9 63.0 1022.3 0.3 ENE 1.5 ENE 0.0 8.8 262.4
07:25 22.8 19.7 61.4 1022.4 1.7 NW 4.0 NNW 0.0 8.1 279.1
07:30 22.2 20.5 60.9 1022.4 6.1 N 9.9 NNW 0.0 8.6 295.7
07:35 21.7 21.2 60.7 1022.5 7.1 N 9.6 N 0.0 8.5 311.9
07:40 21.8 22.0 61.9 1022.5 3.8 N 6.5 NNE 0.0 8.4 323.2
07:45 22.1 22.5 61.4 1022.5 3.9 N 8.0 NNE 0.0 8.4 340.0
07:50 22.1 23.1 60.3 1022.5 4.4 NNW 8.2 NNW 0.0 8.3 355.9
07:55 22.6 23.6 60.0 1022.5 2.8 NW 5.3 WNW 0.0 8.2 373.3
08:00 22.9 24.1 58.3 1022.5 3.6 N 7.5 N 0.0 8.1 390.1
08:05 22.8 24.7 58.5 1022.5 3.9 NNW 6.0 NNW 0.0 8.0 404.7
08:10 23.0 25.1 58.3 1022.5 3.3 NW 5.6 NNW 0.0 8.0 418.5
08:15 23.5 25.5 57.4 1022.5 3.6 NW 6.9 NW 0.0 7.9 431.6
08:20 23.5 26.0 56.2 1022.5 3.5 NNW 6.2 NNW 0.0 7.9 446.0
08:25 23.5 26.4 55.7 1022.5 2.7 NW 5.9 NW 0.0 7.8 460.5
08:30 24.0 26.9 55.5 1022.5 1.9 W 4.5 WSW 0.0 7.7 475.5
08:35 24.7 27.5 54.2 1022.5 1.3 NW 3.7 WNW 0.0 7.6 488.8
08:40 25.8 28.4 50.9 1022.6 1.4 N 3.2 NNE 0.0 7.6 501.8
08:45 26.0 29.2 51.6 1022.6 1.3 NE 3.3 SSE 0.0 7.5 515.9
08:50 26.6 29.9 49.5 1022.6 2.0 WSW 4.2 W 0.0 7.5 530.1
08:55 26.7 30.5 50.4 1022.6 2.8 SSE 4.4 SSE 0.0 7.4 543.7
09:00 27.0 31.6 50.8 1022.6 1.9 SSE 3.8 SE 0.0 7.4 558.1
09:05 27.3 32.3 51.5 1022.6 2.2 SSE 4.6 S 0.0 7.3 571.0
09:10 28.1 32.5 49.5 1022.7 1.3 S 2.8 SSE 0.0 7.2 581.9
09:15 28.3 32.5 49.4 1022.7 2.2 SSW 4.4 SSW 0.0 7.2 594.2
09:20 28.7 32.6 48.3 1022.7 3.2 S 5.2 S 0.0 7.2 607.9
09:25 28.7 33.1 47.0 1022.6 2.1 SE 4.4 S 0.0 7.1 619.7
09:30 28.7 33.5 48.2 1022.6 1.8 ESE 4.0 SE 0.0 7.0 631.5
09:35 29.3 34.2 46.8 1022.6 1.9 SSE 4.9 SE 0.0 7.0 643.5
09:40 30.0 34.9 45.1 1022.6 1.6 ESE 4.0 SSW 0.0 7.0 653.9
09:45 29.8 34.9 43.3 1022.6 2.6 NW 5.8 WNW 0.0 6.9 662.2
09:50 29.3 34.8 44.5 1022.5 2.7 WNW 5.6 NW 0.0 6.8 673.0
09:55 29.5 35.1 44.3 1022.5 1.8 NW 4.4 W 0.0 6.7 679.5
10:00 29.9 35.5 43.2 1022.5 2.5 WNW 5.7 NNW 0.0 6.7 688.1
10:05 30.4 36.3 42.0 1022.5 1.9 NW 5.8 NNW 0.0 6.6 702.1
10:10 30.3 36.9 42.1 1022.4 2.9 NW 5.0 NW 0.0 6.5 711.2
10:15 30.8 37.8 41.0 1022.3 2.2 NNE 4.5 S 0.0 6.4 721.2
10:20 31.6 38.6 38.7 1022.3 2.6 NNW 7.1 NW 0.0 6.4 728.0
10:25 32.1 39.7 37.1 1022.3 2.2 ENE 5.7 SE 0.0 6.3 736.3
10:30 32.4 40.8 35.1 1022.2 2.7 SE 6.0 ESE 0.0 6.2 742.9
10:35 32.9 42.0 33.6 1022.2 3.9 NNW 8.6 NW 0.0 6.1 750.2
10:40 32.5 41.8 33.7 1022.1 4.4 N 7.6 NNE 0.0 5.9 755.2
10:45 32.8 41.8 32.9 1022.1 4.3 WNW 8.7 NW 0.0 5.9 761.1
10:50 33.4 42.6 32.3 1022.0 3.7 NNW 8.3 NNW 0.0 5.8 765.3
10:55 33.6 43.2 30.6 1022.0 3.3 S 7.1 NNE 0.0 5.7 773.4
11:00 34.5 43.8 27.7 1022.0 4.7 SSE 13.0 SE 0.0 4.9 779.6
11:05 34.9 44.5 25.6 1021.9 7.7 SSW 16.5 SSW 0.0 4.8 789.4
11:10 34.7 43.7 25.0 1021.9 8.1 SSW 14.7 SSW 0.0 4.5 798.0
11:15 35.1 43.9 25.4 1021.8 9.8 SSW 21.3 SW 0.0 4.4 802.0
11:20 35.0 43.4 25.2 1021.8 8.0 SSW 16.5 SSW 0.0 4.2 805.0
11:25 34.9 43.7 25.1 1021.8 10.1 S 27.2 SSW 0.0 4.1 806.0
11:30 35.0 43.1 25.5 1021.8 13.1 S 24.3 SSW 0.0 4.0 811.0
11:35 35.1 43.5 24.9 1021.8 10.2 S 18.7 SSW 0.0 4.0 812.0
11:40 35.0 43.9 25.5 1021.8 11.0 SSW 21.8 SSW 0.0 3.9 814.0
11:45 35.5 44.0 24.9 1021.8 12.2 SSW 21.3 SW 0.0 3.8 816.0
11:50 35.3 43.4 24.9 1021.7 12.1 S 27.9 SSW 0.0 3.7 817.0
11:55 35.2 43.1 24.9 1021.7 12.3 SSW 24.9 SSW 0.0 3.6 819.0
12:00 35.5 43.1 25.0 1021.7 13.1 SSW 27.9 S 0.0 3.6 816.0
12:05 35.6 43.4 24.8 1021.6 11.0 SSW 19.6 SW 0.0 3.5 815.0
12:10 35.5 43.9 24.5 1021.6 11.6 S 19.9 S 0.0 3.4 816.0
12:15 35.1 43.5 25.3 1021.6 13.6 SSW 28.7 SW 0.0 3.3 815.0
12:20 35.4 43.1 24.7 1021.5 16.4 SSW 29.1 SSW 0.0 3.3 814.0
12:25 35.4 42.7 24.7 1021.5 16.0 SSW 32.0 SSW 0.0 3.2 812.0
12:30 35.1 42.3 25.1 1021.5 16.3 SSW 27.9 SSW 0.0 3.2 810.0
12:35 35.4 42.6 25.0 1021.5 14.5 SSW 28.9 SSW 0.0 3.1 807.0
12:40 35.3 41.9 24.6 1021.5 19.3 SSW 32.6 SW 0.0 3.1 804.0
12:45 35.0 41.4 25.1 1021.4 15.1 SSW 26.1 SSW 0.0 3.0 799.1
12:50 35.3 41.8 24.7 1021.4 17.7 SSW 29.5 SSW 0.0 3.0 794.5
12:55 35.1 41.6 25.0 1021.4 16.6 SSW 31.3 SSW 0.0 3.0 788.3
13:00 35.2 42.1 25.2 1021.3 12.9 SSW 28.5 SW 0.0 3.0 780.4
13:05 35.4 42.4 24.8 1021.3 17.8 SSW 35.8 SSW 0.0 3.0 773.5
13:10 35.2 42.1 25.4 1021.3 13.6 S 27.6 SSW 0.0 2.8 763.7
Màxima 35.6 44.5 85.7 1022.7 19.3 SSW 35.8 SSW 0.0 9.1 819.0
Mínima 17.6 13.8 24.5 1021.2 2.8
Total 0.0